Flight Track Log - Related Links

Times and Time Zones

All times are in EDT time to prevent confusion due to time zone crossing. See the SWA2150 flight status page for this flight to view local times or setup timezone preferences in your user account.

Time Position Orientation Groundspeed Altitude Reporting Facility
EDT Latitude Longitude Course Direction KTS MPH feet Rate Location/Type
Sat 09:09:08 PM 37.7833 -122.3000 332° Northwest 236 272 5,000  Level Northern Cal TRACON
Sat 09:10:08 PM 37.8333 -122.2500 38° Northeast 265 305 8,300 3,150 Climbing Northern Cal TRACON
Sat 09:11:08 PM 37.9000 -122.1667 45° Northeast 311 358 11,300 3,349 Climbing Northern Cal TRACON
Sat 09:12:17 PM 37.9881 -122.0728 40° Northeast 359 413 15,500 3,554 Climbing Oakland Center
Sat 09:13:00 PM 38.1494 -121.8131 35° Northeast  Level FlightAware Approximate
Sat 09:13:18 PM 38.0669 -121.9847 41° Northeast 377 434 19,000  Level Oakland Center
Sat 09:14:19 PM 38.1550 -121.8981 38° Northeast 399 459 22,000 2,852 Climbing Oakland Center
Sat 09:15:20 PM 38.2481 -121.8108 36° Northeast 415 478 24,800 2,607 Climbing Oakland Center
Sat 09:16:21 PM 38.3439 -121.7192 37° Northeast 430 495 27,300 2,311 Climbing Oakland Center
Sat 09:17:22 PM 38.4369 -121.6297 37° Northeast 440 506 29,500 2,311 Climbing Oakland Center
Sat 09:18:23 PM 38.5592 -121.5125 37° Northeast 450 518 32,000 2,049 Climbing Oakland Center
Sat 09:19:25 PM 38.6422 -121.4317 37° Northeast 451 519 33,700 1,659 Climbing Oakland Center
Sat 09:20:26 PM 38.7439 -121.3336 37° Northeast 452 520 35,400 1,770 Climbing Oakland Center
Sat 09:21:27 PM 38.8467 -121.2339 37° Northeast 457 526 37,300 1,279 Climbing Oakland Center
Sat 09:22:28 PM 38.9636 -121.1189 37° Northeast 444 511 38,000 344 Climbing Oakland Center
Sat 09:23:29 PM 39.0606 -121.0222 38° Northeast 441 507 38,000 295 Level Oakland Center
Sat 09:24:30 PM 39.1603 -120.9258 37° Northeast 446 513 38,600 787 Climbing Oakland Center
Sat 09:25:31 PM 39.2619 -120.8236 38° Northeast 464 534 39,600 1,082 Climbing Oakland Center
Sat 09:26:32 PM 39.3633 -120.7231 37° Northeast 461 531 40,800 689 Climbing Oakland Center
Sat 09:27:33 PM 39.4642 -120.6231 37° Northeast 459 528 41,000 98 Climbing Oakland Center
Sat 09:28:34 PM 39.5642 -120.5239 37° Northeast 454 522 41,000  Level Oakland Center
Sat 09:29:35 PM 39.6639 -120.4236 38° Northeast 453 521 41,000  Level Oakland Center
Sat 09:30:36 PM 39.7614 -120.3242 38° Northeast 448 516 41,000  Level Oakland Center
Sat 09:31:37 PM 39.8611 -120.2239 38° Northeast 452 520 41,000  Level Oakland Center
Sat 09:32:38 PM 39.9744 -120.1086 38° Northeast 457 526 41,000  Level Oakland Center
Sat 09:33:39 PM 40.0747 -120.0050 38° Northeast 458 527 41,000  Level Oakland Center
Sat 09:34:40 PM 40.1769 -119.9031 37° Northeast 460 529 41,000  Level Oakland Center
Sat 09:35:41 PM 40.2761 -119.8003 38° Northeast 455 524 41,000  Level Oakland Center
Sat 09:36:42 PM 40.3761 -119.6981 38° Northeast 454 522 41,000  Level Oakland Center
Sat 09:37:43 PM 40.4744 -119.5964 38° Northeast 452 520 41,000  Level Oakland Center
Sat 09:38:44 PM 40.5767 -119.4914 38° Northeast 448 516 41,000  Level Oakland Center
Sat 09:39:45 PM 40.6728 -119.3967 37° Northeast 449 517 41,000  Level Oakland Center
Sat 09:40:46 PM 40.7717 -119.2975 37° Northeast 447 514 41,000  Level Oakland Center
Sat 09:41:47 PM 40.8717 -119.1986 37° Northeast 444 511 41,000  Level Oakland Center
Sat 09:42:31 PM 40.9494 -119.1186 38° Northeast 442 509 41,000  Level Salt Lake Center
Sat 09:43:32 PM 41.0425 -119.0253 37° Northeast 439 505 41,000  Level Salt Lake Center
Sat 09:44:33 PM 41.1531 -118.9153 37° Northeast 441 507 41,000  Level Salt Lake Center
Sat 09:45:34 PM 41.2464 -118.8197 38° Northeast 442 509 41,000  Level Salt Lake Center
Sat 09:46:35 PM 41.3414 -118.7244 37° Northeast 445 512 41,000  Level Salt Lake Center
Sat 09:47:36 PM 41.4514 -118.6133 37° Northeast 443 510 41,000  Level Salt Lake Center
Sat 09:48:37 PM 41.5450 -118.5164 38° Northeast 443 510 41,000  Level Salt Lake Center
Sat 09:49:38 PM 41.6397 -118.4186 38° Northeast 447 514 41,000  Level Salt Lake Center
Sat 09:50:39 PM 41.7472 -118.3078 38° Northeast 437 503 41,000  Level Salt Lake Center
Sat 09:51:40 PM 41.8392 -118.2117 38° Northeast 437 503 41,000  Level Salt Lake Center
Sat 09:52:41 PM 41.9306 -118.1158 38° Northeast 436 502 41,000  Level Salt Lake Center
Sat 09:53:43 PM 42.0378 -118.0058 37° Northeast 434 499 41,000  Level Salt Lake Center
Sat 09:54:44 PM 42.1289 -117.9086 38° Northeast 435 501 41,000 -443 Level Salt Lake Center
Sat 09:55:45 PM 42.2275 -117.8053 38° Northeast 439 505 40,100 -1,721 Descending Salt Lake Center
Sat 09:56:46 PM 42.3194 -117.7039 39° Northeast 439 505 37,500 -2,951 Descending Salt Lake Center
Sat 09:57:47 PM 42.4267 -117.5903 38° Northeast 439 505 34,100 -3,049 Descending Salt Lake Center
Sat 09:58:48 PM 42.5158 -117.4947 38° Northeast 426 490 31,300 -2,754 Descending Salt Lake Center
Sat 09:59:49 PM 42.6042 -117.4011 38° Northeast 418 481 28,500 -3,000 Descending Salt Lake Center
Sat 10:00:50 PM 42.7042 -117.2919 39° Northeast 411 473 25,200 -2,754 Descending Salt Lake Center
Sat 10:01:51 PM 42.7875 -117.2022 38° Northeast 400 460 22,900 -2,311 Descending Salt Lake Center
Sat 10:02:52 PM 42.8786 -117.1044 38° Northeast 377 434 20,500 -2,164 Descending Salt Lake Center
Sat 10:03:53 PM 42.9547 -117.0222 38° Northeast 365 420 18,500 -1,967 Descending Salt Lake Center
Sat 10:04:54 PM 43.0283 -116.9419 39° Northeast 354 407 16,500 -2,115 Descending Salt Lake Center
Sat 10:05:55 PM 43.1111 -116.8514 39° Northeast 341 392 14,200 -2,115 Descending Salt Lake Center
Sat 10:06:56 PM 43.1825 -116.7744 38° Northeast 330 380 12,200 -1,918 Descending Salt Lake Center
Sat 10:07:57 PM 43.2533 -116.6958 39° Northeast 316 364 10,300 -1,525 Descending Salt Lake Center
Sat 10:08:58 PM 43.3128 -116.6300 39° Northeast 286 329 9,100 -1,328 Descending Salt Lake Center
Sat 10:09:59 PM 43.3722 -116.5644 39° Northeast 281 323 7,600 -1,426 Descending Salt Lake Center
Sat 10:11:00 PM 43.4292 -116.5031 38° Northeast 274 315 6,200 -984 Descending Salt Lake Center
Sat 10:12:01 PM 43.4889 -116.4372 39° Northeast 251 289 5,600 -836 Descending Salt Lake Center
Sat 10:13:02 PM 43.5400 -116.3822 38° Northeast 226 260 4,500 -541 Descending Salt Lake Center
Sat 10:14:03 PM 43.5814 -116.3339 40° Northeast 204 235 4,500 -443 Level Salt Lake Center
Sat 10:15:04 PM 43.5875 -116.2833 81° East 147 169 3,600 -590 Descending Salt Lake Center
Sat 10:16:05 PM 43.5719 -116.2372 115° Southeast 143 165 3,300 -295 Descending Salt Lake Center
Sat 10:18:00 PM 43.5644 -116.2229 133° Southeast  Level Estimated
Sat 10:25:00 PM 43.5644 -116.2229 133° Southeast  Level Estimated

Login

Don't have an account? Register now (free) for customized features, flight alerts, and more!